Time;durP1;ratioP1;P1;durP2;ratioP2;P2;SDS_P1;SDS_P2;PMS_P1;PMS_P2;Temp;Humidity;BMP_temperature;BMP_pressure;BME280_temperature;BME280_humidity;BME280_pressure;Samples;Min_cycle;Max_cycle;Signal;HPM_P1;HPM_P2
2023/07/03 00:02:04;;;;;;;33.80;30.20;;;18.40;1.00;;;;;;5048899;28;20040;-57
2023/07/03 00:04:35;;;;;;;31.55;28.50;;;18.40;1.00;;;;;;5049059;28;20029;-57
2023/07/03 00:07:01;;;;;;;37.13;33.50;;;18.50;1.00;;;;;;5049183;28;20402;-57
2023/07/03 00:09:27;;;;;;;43.60;40.17;;;18.40;1.00;;;;;;5047509;28;20033;-56
2023/07/03 00:11:52;;;;;;;38.03;34.78;;;18.40;1.00;;;;;;5037504;28;20384;-57
2023/07/03 00:14:18;;;;;;;51.97;47.67;;;18.40;1.00;;;;;;5049081;28;20067;-58
2023/07/03 00:16:44;;;;;;;34.85;31.45;;;18.40;1.00;;;;;;5048724;28;20044;-57
2023/07/03 00:19:13;;;;;;;33.55;30.67;;;18.40;1.00;;;;;;5049045;28;20372;-57
2023/07/03 00:21:43;;;;;;;51.03;46.92;;;18.40;1.00;;;;;;5049190;28;20525;-57
2023/07/03 00:24:13;;;;;;;33.53;30.42;;;18.40;1.00;;;;;;5049070;28;20025;-57
2023/07/03 00:26:41;;;;;;;39.50;35.83;;;18.40;1.00;;;;;;5048697;28;20045;-57
2023/07/03 00:29:07;;;;;;;21.92;18.88;;;18.40;1.00;;;;;;5048796;28;20041;-57
2023/07/03 00:31:32;;;;;;;26.98;24.20;;;18.40;1.00;;;;;;5049099;28;20556;-56
2023/07/03 00:33:58;;;;;;;13.93;6.75;;;18.40;1.00;;;;;;5050684;28;20032;-57
2023/07/03 00:36:25;;;;;;;19.83;11.40;;;18.30;1.00;;;;;;5052369;28;20049;-56
2023/07/03 00:38:50;;;;;;;19.73;15.73;;;18.40;1.00;;;;;;5052487;28;20041;-57
2023/07/03 00:41:17;;;;;;;20.35;15.35;;;18.30;1.00;;;;;;5052502;28;20036;-56
2023/07/03 00:43:43;;;;;;;22.58;20.27;;;18.30;1.00;;;;;;5052121;28;20522;-57
2023/07/03 00:46:10;;;;;;;20.13;18.17;;;18.30;1.00;;;;;;5052184;28;20079;-57
2023/07/03 00:48:40;;;;;;;31.33;28.15;;;18.20;1.00;;;;;;5052209;28;20159;-57
2023/07/03 00:51:08;;;;;;;23.90;21.20;;;18.20;1.00;;;;;;5052337;28;20076;-56
2023/07/03 00:53:34;;;;;;;32.38;28.90;;;18.20;1.00;;;;;;5052095;28;20059;-58
2023/07/03 00:56:00;;;;;;;29.50;20.75;;;18.10;1.00;;;;;;5051789;28;20040;-57
2023/07/03 00:58:26;;;;;;;24.38;21.75;;;18.10;1.00;;;;;;5051980;28;20091;-57
2023/07/03 01:01:04;;;;;;;36.08;32.17;;;18.00;1.00;;;;;;5051849;28;20072;-56
2023/07/03 01:03:38;;;;;;;25.20;22.02;;;18.00;1.00;;;;;;5052115;28;20044;-57
2023/07/03 01:06:10;;;;;;;22.92;20.58;;;17.90;1.00;;;;;;5052021;28;20415;-57
2023/07/03 01:08:37;;;;;;;26.80;20.95;;;17.90;1.00;;;;;;5051751;28;20037;-57
2023/07/03 01:11:02;;;;;;;32.85;29.65;;;17.90;1.00;;;;;;5041672;28;20048;-57
2023/07/03 01:13:30;;;;;;;19.80;15.60;;;17.80;1.00;;;;;;5051978;28;20044;-57
2023/07/03 01:15:57;;;;;;;24.38;21.80;;;17.80;1.00;;;;;;5083146;28;20041;-57
2023/07/03 01:18:23;;;;;;;18.08;15.02;;;17.80;1.00;;;;;;5051656;28;20414;-58
2023/07/03 01:20:55;;;;;;;27.70;24.48;;;17.80;1.00;;;;;;5051702;28;20037;-57
2023/07/03 01:23:36;;;;;;;32.05;28.80;;;17.80;1.00;;;;;;5051803;28;20064;-57
2023/07/03 01:26:04;;;;;;;20.42;15.45;;;17.70;1.00;;;;;;5027507;28;20131;-57
2023/07/03 01:28:32;;;;;;;28.33;25.52;;;17.70;1.00;;;;;;5050596;28;20090;-57
2023/07/03 01:30:59;;;;;;;44.60;40.70;;;17.70;1.00;;;;;;5051736;28;20045;-57
2023/07/03 01:33:30;;;;;;;28.00;22.65;;;17.70;1.00;;;;;;5051550;28;20044;-57
2023/07/03 01:35:58;;;;;;;35.67;32.03;;;17.70;1.00;;;;;;5051829;28;20053;-57
2023/07/03 01:38:25;;;;;;;46.33;42.58;;;17.60;1.00;;;;;;5051303;28;20076;-57
2023/07/03 01:40:53;;;;;;;50.40;45.78;;;17.50;1.00;;;;;;5051111;28;20090;-57
2023/07/03 01:43:20;;;;;;;42.25;38.35;;;17.50;1.00;;;;;;5066433;28;20070;-57
2023/07/03 01:45:47;;;;;;;36.03;32.63;;;17.50;1.00;;;;;;5050556;28;20083;-57
2023/07/03 01:48:13;;;;;;;42.80;39.08;;;17.50;1.00;;;;;;5066609;28;20041;-57
2023/07/03 01:50:39;;;;;;;41.80;38.10;;;17.40;1.00;;;;;;5050906;28;20062;-57
2023/07/03 01:53:15;;;;;;;39.85;36.13;;;17.50;1.00;;;;;;5050695;28;20517;-57
2023/07/03 01:56:11;;;;;;;40.92;37.13;;;17.50;1.00;;;;;;5050682;28;20037;-57
2023/07/03 01:58:56;;;;;;;24.00;19.70;;;17.50;1.00;;;;;;5051383;28;20406;-57
2023/07/03 02:01:30;;;;;;;33.95;30.33;;;17.50;1.00;;;;;;5050957;28;20087;-58
2023/07/03 02:04:13;;;;;;;60.85;55.90;;;17.50;1.00;;;;;;5051183;28;20033;-58
2023/07/03 02:06:43;;;;;;;47.58;43.38;;;17.50;1.00;;;;;;5065098;28;20076;-57
2023/07/03 02:09:10;;;;;;;57.20;51.80;;;17.50;1.00;;;;;;5049871;28;20123;-57
2023/07/03 02:11:36;;;;;;;56.28;51.47;;;17.50;1.00;;;;;;5013831;28;20121;-57
2023/07/03 02:14:02;;;;;;;58.28;53.05;;;17.50;1.00;;;;;;5022204;28;20047;-58
2023/07/03 02:16:29;;;;;;;57.78;53.03;;;17.50;1.00;;;;;;5050689;28;20099;-58
2023/07/03 02:18:55;;;;;;;70.15;64.28;;;17.50;1.00;;;;;;5050488;28;20094;-58
2023/07/03 02:21:21;;;;;;;63.20;57.42;;;17.40;1.00;;;;;;5050826;28;20156;-58
2023/07/03 02:23:47;;;;;;;64.40;59.00;;;17.40;1.00;;;;;;5050557;28;20092;-58
2023/07/03 02:26:14;;;;;;;66.72;60.53;;;17.40;1.00;;;;;;5050317;28;20033;-59
2023/07/03 02:28:40;;;;;;;69.22;63.42;;;17.40;1.00;;;;;;5050331;28;20033;-57
2023/07/03 02:31:06;;;;;;;70.50;64.53;;;17.30;1.00;;;;;;5050428;28;20032;-58
2023/07/03 02:33:32;;;;;;;67.75;61.42;;;17.30;1.00;;;;;;5050257;28;20110;-57
2023/07/03 02:36:01;;;;;;;81.18;74.18;;;17.30;6.60;;;;;;5050008;28;20037;-58
2023/07/03 02:38:27;;;;;;;70.53;63.92;;;17.30;18.70;;;;;;5050098;28;20503;-58
2023/07/03 02:40:52;;;;;;;65.25;59.47;;;17.30;24.00;;;;;;5050205;28;20037;-58
2023/07/03 02:43:18;;;;;;;60.60;55.50;;;17.30;33.90;;;;;;5050282;28;20048;-58
2023/07/03 02:45:43;;;;;;;63.88;58.30;;;17.40;18.90;;;;;;5049643;28;20087;-57
2023/07/03 02:48:11;;;;;;;72.53;66.43;;;17.20;20.40;;;;;;5049672;28;20068;-58
2023/07/03 02:50:36;;;;;;;59.97;54.95;;;17.20;29.00;;;;;;5048668;28;20060;-58
2023/07/03 02:53:02;;;;;;;70.00;64.03;;;17.20;29.60;;;;;;5050110;28;20041;-57
2023/07/03 02:55:28;;;;;;;66.97;61.13;;;17.30;31.20;;;;;;5049475;28;20080;-57
2023/07/03 02:57:57;;;;;;;67.22;61.42;;;17.20;43.10;;;;;;5049789;28;20277;-56
2023/07/03 03:00:23;;;;;;;67.55;61.60;;;17.20;47.90;;;;;;5049920;28;20060;-57
2023/07/03 03:02:49;;;;;;;68.18;62.30;;;17.20;51.10;;;;;;5050110;28;20033;-57
2023/07/03 03:05:15;;;;;;;61.83;56.55;;;17.20;55.80;;;;;;5049453;28;20048;-57
2023/07/03 03:07:41;;;;;;;63.60;57.40;;;17.20;77.40;;;;;;5047760;28;20037;-57
2023/07/03 03:10:07;;;;;;;65.60;59.65;;;17.10;73.20;;;;;;5040937;28;20045;-57
2023/07/03 03:12:33;;;;;;;64.45;58.78;;;17.10;68.50;;;;;;5029907;28;20040;-57
2023/07/03 03:14:59;;;;;;;60.40;54.88;;;17.60;75.40;;;;;;5043467;28;20040;-56
2023/07/03 03:17:24;;;;;;;51.38;47.33;;;17.10;63.20;;;;;;5049204;28;20120;-57
2023/07/03 03:19:50;;;;;;;54.55;49.58;;;17.00;24.10;;;;;;5048438;28;20099;-58
2023/07/03 03:22:16;;;;;;;60.35;54.75;;;17.00;23.50;;;;;;5049368;28;20040;-57
2023/07/03 03:24:41;;;;;;;57.75;52.65;;;17.00;27.80;;;;;;5048328;28;20044;-57
2023/07/03 03:27:07;;;;;;;68.03;61.55;;;17.00;27.70;;;;;;5049669;28;20045;-56
2023/07/03 03:29:33;;;;;;;63.55;57.38;;;17.00;59.60;;;;;;5049555;28;20037;-57
2023/07/03 03:31:59;;;;;;;65.65;59.47;;;17.00;76.40;;;;;;5048439;28;20045;-56
2023/07/03 03:34:25;;;;;;;65.07;58.53;;;17.40;97.50;;;;;;5049523;28;20045;-57
2023/07/03 03:36:50;;;;;;;53.47;48.53;;;16.90;96.60;;;;;;5049482;28;20033;-56
2023/07/03 03:39:16;;;;;;;60.45;55.03;;;16.90;70.60;;;;;;5049102;28;20035;-57
2023/07/03 03:41:41;;;;;;;56.28;51.47;;;16.90;60.50;;;;;;5049228;28;20048;-57
2023/07/03 03:44:07;;;;;;;51.85;47.25;;;16.90;64.80;;;;;;5049323;28;20507;-56
2023/07/03 03:46:34;;;;;;;56.95;51.70;;;16.90;64.80;;;;;;5049692;28;20821;-57
2023/07/03 03:49:00;;;;;;;49.17;44.78;;;17.20;76.30;;;;;;5049021;28;20041;-57
2023/07/03 03:51:26;;;;;;;55.00;49.67;;;17.00;75.40;;;;;;5047882;28;20033;-57
2023/07/03 03:53:51;;;;;;;57.35;51.92;;;17.10;86.60;;;;;;5048106;28;20067;-56
2023/07/03 03:56:19;;;;;;;54.58;49.67;;;17.10;96.30;;;;;;5049210;28;20041;-57
2023/07/03 03:58:45;;;;;;;56.42;51.13;;;17.10;99.90;;;;;;5049185;28;20037;-56
2023/07/03 04:01:12;;;;;;;51.72;47.28;;;17.10;94.90;;;;;;5049112;28;20040;-57
2023/07/03 04:03:37;;;;;;;53.70;48.72;;;17.10;88.80;;;;;;5049056;28;20044;-57
2023/07/03 04:06:03;;;;;;;55.75;50.65;;;17.20;87.80;;;;;;5049293;28;20721;-57
2023/07/03 04:08:29;;;;;;;55.40;49.83;;;17.20;86.30;;;;;;5049987;28;20498;-56
2023/07/03 04:10:55;;;;;;;47.22;43.22;;;17.20;81.00;;;;;;5033091;28;20037;-57
2023/07/03 04:13:20;;;;;;;51.70;47.22;;;17.30;54.60;;;;;;5033389;28;20038;-56
2023/07/03 04:15:52;;;;;;;58.08;52.88;;;17.60;47.70;;;;;;5048635;28;20586;-56
2023/07/03 04:18:22;;;;;;;55.70;50.53;;;17.20;65.70;;;;;;5033205;28;20083;-57
2023/07/03 04:20:48;;;;;;;56.75;51.55;;;17.20;59.30;;;;;;5031587;28;20052;-57
2023/07/03 04:23:15;;;;;;;54.40;49.78;;;17.30;75.40;;;;;;5033002;28;20049;-56
2023/07/03 04:25:44;;;;;;;53.92;48.42;;;17.30;81.60;;;;;;5043980;28;20037;-57
2023/07/03 04:28:10;;;;;;;56.05;51.03;;;17.30;69.70;;;;;;5052969;28;20041;-57
2023/07/03 04:30:36;;;;;;;59.42;53.85;;;17.30;73.90;;;;;;5052542;28;20048;-56
2023/07/03 04:33:01;;;;;;;52.28;47.63;;;17.30;91.50;;;;;;5052881;28;20136;-57
2023/07/03 04:35:27;;;;;;;36.83;33.65;;;17.10;70.50;;;;;;5052365;28;20094;-57
2023/07/03 04:37:52;;;;;;;37.97;34.58;;;17.10;9.90;;;;;;5052679;28;20036;-56
2023/07/03 04:40:18;;;;;;;39.08;35.67;;;17.00;1.00;;;;;;5067698;28;20041;-57
2023/07/03 04:42:44;;;;;;;39.17;36.05;;;17.00;1.00;;;;;;5052379;28;20115;-57
2023/07/03 04:45:10;;;;;;;34.20;31.20;;;17.00;1.00;;;;;;5051084;28;20045;-57
2023/07/03 04:47:37;;;;;;;45.80;41.80;;;17.00;1.00;;;;;;5052392;28;20041;-57
2023/07/03 04:50:08;;;;;;;49.63;45.65;;;17.00;1.60;;;;;;5052167;28;20045;-56
2023/07/03 04:52:38;;;;;;;38.80;35.03;;;17.00;11.90;;;;;;5050701;28;20048;-56
2023/07/03 04:55:05;;;;;;;39.38;35.97;;;17.00;2.50;;;;;;5067952;28;20067;-56
2023/07/03 04:57:30;;;;;;;53.80;49.03;;;17.10;11.70;;;;;;5052339;28;20045;-56
2023/07/03 04:59:56;;;;;;;44.38;40.72;;;17.00;28.50;;;;;;5051191;28;20041;-56
2023/07/03 05:02:22;;;;;;;50.00;45.92;;;17.10;15.30;;;;;;5052478;28;20040;-56
2023/07/03 05:04:47;;;;;;;52.50;48.45;;;17.00;18.60;;;;;;5051929;28;20398;-57
2023/07/03 05:07:13;;;;;;;56.40;51.63;;;17.00;22.40;;;;;;5051455;28;20079;-57
2023/07/03 05:09:40;;;;;;;48.58;44.55;;;17.30;39.70;;;;;;5045972;28;20064;-57
2023/07/03 05:12:06;;;;;;;49.85;45.17;;;17.30;47.90;;;;;;5053520;28;20091;-57
2023/07/03 05:14:31;;;;;;;48.30;44.08;;;17.40;45.80;;;;;;5051637;28;20079;-57
2023/07/03 05:16:57;;;;;;;43.30;39.50;;;17.50;62.90;;;;;;5051845;28;20068;-57
2023/07/03 05:19:22;;;;;;;55.67;50.65;;;17.60;63.10;;;;;;5051163;28;20510;-57
2023/07/03 05:21:48;;;;;;;56.65;51.70;;;17.70;89.90;;;;;;5049553;28;20403;-57
2023/07/03 05:24:13;;;;;;;57.38;52.53;;;17.50;96.30;;;;;;5051720;28;20114;-56
2023/07/03 05:26:39;;;;;;;61.17;55.33;;;17.30;93.20;;;;;;5051773;28;20091;-57
2023/07/03 05:29:05;;;;;;;60.60;54.88;;;17.40;98.90;;;;;;5050669;28;20868;-57
2023/07/03 05:31:31;;;;;;;57.58;52.75;;;17.50;98.80;;;;;;5051865;28;20124;-57
2023/07/03 05:33:56;;;;;;;60.42;55.15;;;17.10;74.40;;;;;;5051809;28;20055;-57
2023/07/03 05:36:22;;;;;;;57.53;52.33;;;17.80;62.30;;;;;;5051594;28;20045;-57
2023/07/03 05:38:48;;;;;;;58.60;53.47;;;17.30;76.70;;;;;;5051326;28;20029;-56
2023/07/03 05:41:14;;;;;;;60.20;55.05;;;17.10;61.80;;;;;;5051379;28;20090;-57
2023/07/03 05:43:40;;;;;;;65.85;59.22;;;17.00;96.10;;;;;;5041262;28;20067;-57
2023/07/03 05:46:06;;;;;;;65.70;59.35;;;16.90;99.90;;;;;;5051408;28;20049;-57
2023/07/03 05:48:31;;;;;;;63.72;57.20;;;16.80;99.90;;;;;;5051014;28;20041;-57
2023/07/03 05:50:57;;;;;;;61.25;55.13;;;16.90;99.90;;;;;;5051237;28;20414;-56
2023/07/03 05:53:22;;;;;;;59.70;53.88;;;17.00;99.90;;;;;;5050860;28;20442;-57
2023/07/03 05:55:55;;;;;;;58.70;52.85;;;17.00;99.90;;;;;;5051093;28;20080;-57
2023/07/03 05:58:22;;;;;;;53.85;48.55;;;17.10;99.90;;;;;;5051146;28;20051;-57
2023/07/03 06:00:48;;;;;;;53.08;47.90;;;17.20;99.90;;;;;;5051117;28;20040;-56
2023/07/03 06:03:14;;;;;;;53.28;47.97;;;17.30;99.90;;;;;;5051054;28;20033;-57
2023/07/03 06:05:41;;;;;;;50.92;45.78;;;17.40;99.90;;;;;;5050804;28;20056;-57
2023/07/03 06:08:06;;;;;;;55.47;49.95;;;17.60;99.90;;;;;;5051162;28;20056;-58
2023/07/03 06:10:32;;;;;;;53.17;48.25;;;17.40;99.90;;;;;;5026162;28;20045;-58
2023/07/03 06:12:58;;;;;;;50.75;46.17;;;17.60;99.90;;;;;;5039449;28;20033;-58
2023/07/03 06:15:23;;;;;;;52.33;47.88;;;17.60;96.70;;;;;;5046457;28;20503;-61
2023/07/03 06:17:49;;;;;;;50.05;45.28;;;17.70;97.90;;;;;;5029318;28;20049;-58
2023/07/03 06:20:15;;;;;;;39.90;36.53;;;18.00;99.90;;;;;;5036770;28;20168;-59
2023/07/03 06:22:41;;;;;;;40.97;37.65;;;18.00;59.70;;;;;;5038455;28;20083;-58
2023/07/03 06:25:07;;;;;;;47.55;43.60;;;17.90;18.40;;;;;;5032923;28;20542;-58
2023/07/03 06:27:33;;;;;;;48.78;44.95;;;18.00;16.80;;;;;;5030525;28;20033;-58
2023/07/03 06:29:59;;;;;;;50.83;46.45;;;18.00;18.60;;;;;;5034240;28;20037;-58
2023/07/03 06:32:24;;;;;;;57.97;52.47;;;18.00;29.60;;;;;;5032321;28;20068;-58
2023/07/03 06:34:50;;;;;;;61.05;55.03;;;18.00;59.30;;;;;;5046533;28;20028;-58
2023/07/03 06:37:15;;;;;;;60.33;54.38;;;18.10;92.00;;;;;;5030976;28;20067;-58
2023/07/03 06:39:41;;;;;;;54.38;49.50;;;18.20;99.90;;;;;;5034241;28;20041;-58
2023/07/03 06:42:07;;;;;;;50.05;45.97;;;18.00;63.50;;;;;;5030421;28;20072;-58
2023/07/03 06:44:33;;;;;;;48.92;44.92;;;18.00;44.80;;;;;;5035519;28;20053;-58
2023/07/03 06:46:58;;;;;;;38.50;35.03;;;18.10;29.10;;;;;;5030326;28;20543;-60
2023/07/03 06:49:24;;;;;;;35.70;32.60;;;18.00;3.00;;;;;;5069935;28;20045;-59
2023/07/03 06:51:51;;;;;;;36.30;33.33;;;18.00;1.00;;;;;;5049358;28;20040;-59
2023/07/03 06:54:17;;;;;;;35.88;32.92;;;18.00;1.00;;;;;;5048996;28;20110;-58
2023/07/03 06:56:43;;;;;;;44.38;40.67;;;18.20;1.00;;;;;;5037085;28;20041;-58
2023/07/03 06:59:08;;;;;;;48.05;44.00;;;18.30;1.00;;;;;;5049763;28;20041;-59
2023/07/03 07:01:34;;;;;;;39.08;36.03;;;18.30;1.00;;;;;;5030706;28;20071;-59
2023/07/03 07:03:59;;;;;;;32.55;29.70;;;18.30;1.00;;;;;;5044935;28;20099;-58
2023/07/03 07:06:27;;;;;;;31.50;28.80;;;18.30;1.00;;;;;;5029877;28;20080;-59
2023/07/03 07:08:54;;;;;;;49.33;45.35;;;18.20;1.00;;;;;;5029721;28;20099;-58
2023/07/03 07:11:28;;;;;;;33.25;30.35;;;18.40;1.00;;;;;;5022742;28;20548;-59
2023/07/03 07:13:55;;;;;;;28.85;25.90;;;18.40;1.00;;;;;;5010339;28;20049;-59
2023/07/03 07:16:34;;;;;;;22.30;20.17;;;18.70;1.00;;;;;;5042485;28;20202;-59
2023/07/03 07:19:02;;;;;;;17.92;15.90;;;18.90;1.00;;;;;;5010202;28;20038;-59
2023/07/03 07:21:30;;;;;;;17.98;15.38;;;19.00;1.00;;;;;;5041779;28;20068;-59
2023/07/03 07:23:58;;;;;;;17.60;15.25;;;18.90;1.00;;;;;;5038563;28;20086;-58
2023/07/03 07:26:28;;;;;;;29.70;26.88;;;18.80;1.00;;;;;;5033358;28;20045;-59
2023/07/03 07:28:54;;;;;;;31.80;28.77;;;19.00;1.00;;;;;;5033112;28;20075;-59
2023/07/03 07:31:21;;;;;;;17.05;15.27;;;19.20;1.00;;;;;;5033875;28;20521;-59
2023/07/03 07:33:47;;;;;;;18.77;16.90;;;19.30;1.00;;;;;;5040683;28;20421;-59
2023/07/03 07:36:15;;;;;;;16.75;13.50;;;19.50;1.00;;;;;;5043316;28;20110;-59
2023/07/03 07:38:41;;;;;;;16.88;13.63;;;19.50;1.00;;;;;;5049417;28;20399;-59
2023/07/03 07:41:07;;;;;;;16.38;12.93;;;19.30;1.00;;;;;;5048984;28;20095;-59
2023/07/03 07:43:33;;;;;;;18.85;16.95;;;19.20;1.00;;;;;;5050181;28;20499;-59
2023/07/03 07:45:58;;;;;;;13.50;9.82;;;19.40;1.00;;;;;;5053381;28;20103;-59
2023/07/03 07:48:26;;;;;;;12.88;10.50;;;19.70;1.00;;;;;;5051883;28;20116;-59
2023/07/03 07:50:51;;;;;;;22.95;15.57;;;19.80;1.00;;;;;;5053374;28;20442;-59
2023/07/03 07:53:18;;;;;;;12.00;9.48;;;19.90;1.00;;;;;;5047790;28;20078;-59
2023/07/03 07:55:43;;;;;;;18.58;12.73;;;19.80;1.00;;;;;;5023215;28;20073;-59
2023/07/03 07:58:09;;;;;;;16.90;5.53;;;19.70;1.00;;;;;;5049444;28;20108;-59
2023/07/03 08:00:34;;;;;;;12.73;9.32;;;19.30;1.00;;;;;;5048852;28;20037;-59
2023/07/03 08:03:00;;;;;;;9.63;5.68;;;19.30;1.00;;;;;;5053286;28;20043;-59
2023/07/03 08:05:26;;;;;;;13.57;6.43;;;19.30;1.00;;;;;;5052951;28;20041;-59
2023/07/03 08:07:52;;;;;;;13.23;5.63;;;19.00;1.00;;;;;;5052103;28;20036;-58
2023/07/03 08:10:19;;;;;;;14.15;8.38;;;19.00;1.00;;;;;;5033281;28;20033;-58
2023/07/03 08:12:45;;;;;;;10.82;3.92;;;19.00;1.00;;;;;;5028385;28;20120;-59
2023/07/03 08:15:11;;;;;;;12.20;5.88;;;19.00;1.00;;;;;;5046446;28;20407;-59
2023/07/03 08:17:37;;;;;;;12.95;4.78;;;18.90;1.00;;;;;;5041111;28;20503;-58
2023/07/03 08:20:04;;;;;;;12.98;7.00;;;18.90;1.00;;;;;;5046153;28;20040;-58
2023/07/03 08:22:30;;;;;;;15.10;6.90;;;19.20;1.00;;;;;;5053375;28;20033;-59
2023/07/03 08:24:55;;;;;;;11.27;6.15;;;19.50;1.00;;;;;;5051097;28;20581;-59
2023/07/03 08:27:21;;;;;;;10.00;3.72;;;19.70;1.00;;;;;;5052613;28;20517;-59
2023/07/03 08:29:46;;;;;;;12.38;4.55;;;19.60;1.00;;;;;;5052863;28;20049;-59
2023/07/03 08:32:14;;;;;;;13.10;4.85;;;20.00;1.00;;;;;;5052627;28;20032;-58
2023/07/03 08:34:40;;;;;;;8.25;3.40;;;20.20;1.00;;;;;;5047839;28;20045;-59
2023/07/03 08:37:05;;;;;;;9.45;3.53;;;20.50;1.00;;;;;;5017311;28;20057;-59
2023/07/03 08:39:31;;;;;;;6.63;2.50;;;20.50;1.00;;;;;;5032363;28;20040;-59
2023/07/03 08:42:07;;;;;;;9.02;2.80;;;20.10;1.00;;;;;;5051175;28;20090;-59
2023/07/03 08:44:33;;;;;;;8.02;2.72;;;20.30;1.00;;;;;;5033023;28;20056;-59
2023/07/03 08:47:03;;;;;;;8.55;2.55;;;20.40;1.00;;;;;;5040738;28;20040;-59
2023/07/03 08:49:30;;;;;;;8.52;3.03;;;20.50;1.00;;;;;;5052159;28;20040;-59
2023/07/03 08:51:59;;;;;;;11.13;2.97;;;20.30;1.00;;;;;;5052464;28;20048;-59
2023/07/03 08:54:32;;;;;;;11.95;2.72;;;20.10;1.00;;;;;;5043494;28;20056;-59
2023/07/03 08:56:58;;;;;;;11.98;3.72;;;20.20;1.00;;;;;;5030390;28;20045;-59
2023/07/03 08:59:24;;;;;;;12.20;4.13;;;20.10;1.00;;;;;;5034959;28;20176;-59
2023/07/03 09:02:21;;;;;;;9.75;3.30;;;20.30;1.00;;;;;;5014276;28;20116;-59
2023/07/03 09:05:23;;;;;;;12.27;2.90;;;20.70;1.00;;;;;;5035397;28;20407;-59
2023/07/03 09:07:54;;;;;;;13.00;2.92;;;21.00;1.00;;;;;;5016008;28;20096;-60
2023/07/03 09:10:41;;;;;;;10.43;3.45;;;21.40;1.00;;;;;;5029576;28;20085;-59
2023/07/03 09:13:08;;;;;;;;;;;21.50;1.00;;;;;;5028655;28;20491;-59
2023/07/03 09:15:41;;;;;;;7.65;2.33;;;21.10;1.00;;;;;;5051677;28;20587;-58
2023/07/03 09:18:14;;;;;;;9.32;2.38;;;20.90;1.00;;;;;;5051729;28;20048;-59
2023/07/03 09:20:41;;;;;;;6.43;2.20;;;21.00;1.00;;;;;;5037244;28;20038;-59
2023/07/03 09:23:23;;;;;;;9.07;2.58;;;21.00;1.00;;;;;;5039346;28;20075;-59
2023/07/03 09:25:56;;;;;;;8.65;2.42;;;21.10;1.00;;;;;;5051376;28;20052;-59
2023/07/03 09:28:23;;;;;;;10.25;2.30;;;20.80;1.00;;;;;;5051507;28;20449;-59
2023/07/03 09:30:50;;;;;;;9.00;2.47;;;20.60;1.00;;;;;;5051652;28;20344;-59
2023/07/03 09:33:16;;;;;;;9.93;2.35;;;20.40;1.00;;;;;;5051823;28;20360;-58
2023/07/03 09:35:41;;;;;;;4.80;2.13;;;20.20;1.00;;;;;;5047222;28;20088;-59
2023/07/03 09:38:16;;;;;;;9.15;2.65;;;20.10;1.00;;;;;;5031580;28;20548;-59
2023/07/03 09:40:44;;;;;;;9.90;2.50;;;20.00;1.00;;;;;;5022826;28;20519;-59
2023/07/03 09:43:27;;;;;;;11.32;2.60;;;19.90;1.00;;;;;;5035683;28;20045;-59
2023/07/03 09:46:06;;;;;;;10.85;3.25;;;19.60;1.00;;;;;;5051280;28;20116;-59
2023/07/03 09:48:34;;;;;;;8.20;2.65;;;19.50;1.00;;;;;;5050842;28;20036;-59
2023/07/03 09:51:03;;;;;;;11.07;2.80;;;19.50;1.00;;;;;;5027307;28;20375;-59
2023/07/03 09:53:30;;;;;;;13.00;3.00;;;19.40;1.00;;;;;;5030490;28;20038;-59
2023/07/03 09:55:58;;;;;;;9.23;2.65;;;19.40;1.00;;;;;;5040299;28;20045;-59
2023/07/03 09:58:29;;;;;;;12.63;2.67;;;19.40;1.00;;;;;;5031485;28;20048;-59
2023/07/03 10:00:58;;;;;;;11.93;2.80;;;19.40;1.00;;;;;;5036804;28;20033;-59
2023/07/03 10:03:25;;;;;;;13.85;2.80;;;19.30;1.00;;;;;;5050723;28;20128;-59
2023/07/03 10:05:51;;;;;;;9.07;2.45;;;19.40;1.00;;;;;;5050405;28;20046;-59
2023/07/03 10:08:21;;;;;;;13.52;3.50;;;19.20;1.00;;;;;;5029629;28;20038;-58
2023/07/03 10:10:47;;;;;;;10.18;3.05;;;19.30;1.00;;;;;;5028784;28;20063;-58
2023/07/03 10:13:26;;;;;;;5.38;2.30;;;19.30;1.00;;;;;;5031104;28;20555;-57
2023/07/03 10:15:54;;;;;;;10.30;2.42;;;19.20;1.00;;;;;;5011012;28;20041;-58
2023/07/03 10:18:34;;;;;;;12.13;2.60;;;19.20;1.00;;;;;;5046349;28;20048;-58
2023/07/03 10:21:06;;;;;;;7.60;2.75;;;19.10;1.00;;;;;;5046500;28;20514;-58
2023/07/03 10:23:37;;;;;;;11.68;3.15;;;19.10;1.00;;;;;;5046912;28;20037;-58
2023/07/03 10:26:05;;;;;;;11.15;2.88;;;19.20;1.00;;;;;;5015454;28;20046;-58
2023/07/03 10:28:43;;;;;;;11.45;3.10;;;19.20;1.00;;;;;;5063646;28;20040;-58
2023/07/03 10:31:18;;;;;;;9.88;2.72;;;19.50;1.00;;;;;;5034805;28;20091;-58
2023/07/03 10:33:46;;;;;;;13.73;3.13;;;19.80;1.00;;;;;;5035290;28;20067;-59
2023/07/03 10:36:22;;;;;;;15.73;3.35;;;19.90;1.00;;;;;;5014192;28;20049;-58
2023/07/03 10:39:16;;;;;;;15.45;3.42;;;20.10;1.00;;;;;;5017761;28;20039;-58
2023/07/03 10:41:49;;;;;;;15.05;3.17;;;20.40;1.00;;;;;;5049876;28;20483;-58
2023/07/03 10:44:23;;;;;;;8.07;2.95;;;20.50;1.00;;;;;;5049987;28;20053;-59
2023/07/03 10:46:59;;;;;;;10.43;2.67;;;20.60;1.00;;;;;;5041128;28;20042;-59
2023/07/03 10:49:31;;;;;;;12.02;2.88;;;20.50;1.00;;;;;;5023864;28;20128;-58
2023/07/03 10:52:27;;;;;;;10.20;3.17;;;20.40;1.00;;;;;;5037571;28;20088;-58
2023/07/03 10:55:26;;;;;;;6.33;2.33;;;20.60;1.00;;;;;;5026305;28;20116;-59
2023/07/03 10:58:26;;;;;;;13.13;2.60;;;20.90;1.00;;;;;;5048571;28;20341;-58
2023/07/03 11:01:24;;;;;;;11.50;2.28;;;20.70;1.00;;;;;;5048265;28;20059;-58
2023/07/03 11:04:11;;;;;;;9.55;2.65;;;20.70;1.00;;;;;;5046040;28;20376;-58
2023/07/03 11:06:43;;;;;;;14.43;2.90;;;20.70;1.00;;;;;;5050143;28;20051;-57
2023/07/03 11:09:26;;;;;;;15.80;3.13;;;20.80;1.00;;;;;;5049580;28;20033;-58
2023/07/03 11:12:16;;;;;;;9.82;2.33;;;20.80;1.00;;;;;;5031453;28;20045;-58
2023/07/03 11:15:19;;;;;;;12.77;2.67;;;20.90;1.00;;;;;;5042227;28;20124;-57
2023/07/03 11:18:22;;;;;;;12.00;2.78;;;21.20;1.00;;;;;;5049978;28;20045;-58
2023/07/03 11:20:58;;;;;;;9.50;2.45;;;21.20;1.00;;;;;;5064830;28;20040;-57
2023/07/03 11:23:31;;;;;;;8.82;2.63;;;20.90;1.00;;;;;;5048594;28;20037;-57
2023/07/03 11:26:04;;;;;;;14.98;2.97;;;20.80;1.00;;;;;;5049808;28;20045;-57
2023/07/03 11:28:38;;;;;;;11.20;2.85;;;20.90;1.00;;;;;;5049526;28;20510;-58
2023/07/03 11:31:04;;;;;;;9.48;2.90;;;20.50;1.00;;;;;;5049532;28;20044;-58
2023/07/03 11:33:31;;;;;;;13.07;3.38;;;20.30;1.00;;;;;;5049709;28;20037;-57
2023/07/03 11:35:58;;;;;;;6.63;2.33;;;20.10;1.00;;;;;;5033665;28;20564;-58
2023/07/03 11:38:26;;;;;;;9.63;3.00;;;20.00;1.00;;;;;;5058015;28;20080;-57
2023/07/03 11:40:55;;;;;;;8.38;2.60;;;19.80;1.00;;;;;;5041329;28;20483;-57
2023/07/03 11:43:21;;;;;;;9.85;2.45;;;19.80;1.00;;;;;;5049639;28;20396;-57
2023/07/03 11:46:01;;;;;;;14.57;2.78;;;19.80;1.00;;;;;;5050014;28;20044;-57
2023/07/03 11:48:45;;;;;;;9.05;2.60;;;19.70;1.00;;;;;;5049643;28;20045;-58
2023/07/03 11:51:14;;;;;;;8.75;2.50;;;19.70;1.00;;;;;;5035500;28;20033;-57
2023/07/03 11:53:51;;;;;;;8.63;2.85;;;19.70;1.00;;;;;;5047292;28;20414;-58
2023/07/03 11:56:39;;;;;;;9.98;2.88;;;19.90;1.00;;;;;;5049193;28;20502;-57
2023/07/03 11:59:25;;;;;;;15.57;3.20;;;20.10;1.00;;;;;;5049216;28;20498;-57
2023/07/03 12:02:39;;;;;;;12.07;3.30;;;20.40;1.00;;;;;;5042543;28;20431;-58
2023/07/03 12:05:09;;;;;;;12.25;2.50;;;20.50;1.00;;;;;;5042958;28;20124;-60
2023/07/03 12:07:35;;;;;;;15.25;2.78;;;20.70;1.00;;;;;;5049108;28;20053;-57
2023/07/03 12:10:19;;;;;;;11.48;2.72;;;20.80;1.00;;;;;;5045456;28;20376;-58
2023/07/03 12:13:23;;;;;;;16.48;2.60;;;20.90;1.00;;;;;;5028496;28;20042;-57
2023/07/03 12:15:59;;;;;;;16.05;3.20;;;21.00;1.00;;;;;;5046818;28;20041;-57
2023/07/03 12:18:26;;;;;;;11.68;2.53;;;20.90;1.00;;;;;;5049053;28;20040;-57
2023/07/03 12:20:59;;;;;;;14.18;2.90;;;20.90;1.00;;;;;;5038835;28;20112;-58
2023/07/03 12:23:40;;;;;;;14.80;3.13;;;21.00;1.00;;;;;;5030187;28;20077;-58
2023/07/03 12:26:12;;;;;;;11.13;3.00;;;21.00;1.00;;;;;;5043659;28;20060;-58
2023/07/03 12:28:38;;;;;;;12.68;3.13;;;20.90;1.00;;;;;;5049215;28;20049;-58
2023/07/03 12:31:22;;;;;;;13.45;3.05;;;20.90;1.00;;;;;;5051017;28;20580;-58
2023/07/03 12:33:57;;;;;;;8.52;2.70;;;20.90;1.00;;;;;;5051252;28;20163;-57
2023/07/03 12:36:29;;;;;;;14.37;2.80;;;21.00;1.00;;;;;;5051659;28;20545;-58
2023/07/03 12:38:55;;;;;;;6.95;2.20;;;20.80;1.00;;;;;;5052259;28;20313;-58
2023/07/03 12:41:27;;;;;;;13.32;2.83;;;20.90;1.00;;;;;;5052294;28;20079;-58
2023/07/03 12:43:53;;;;;;;11.90;2.45;;;21.00;1.00;;;;;;5037422;28;20083;-59
2023/07/03 12:46:31;;;;;;;7.53;2.63;;;20.80;1.00;;;;;;5036597;28;20069;-57
2023/07/03 12:49:05;;;;;;;8.65;2.72;;;20.90;1.00;;;;;;5027562;28;20060;-58
2023/07/03 12:51:58;;;;;;;8.55;2.55;;;21.00;1.00;;;;;;5041048;28;20068;-57